createdAt,value
2019-04-16T00:00:17.185Z,23.60
2019-04-16T00:02:54.269Z,22.50
2019-04-16T00:05:36.824Z,23.47
2019-04-16T00:08:26.518Z,23.20
2019-04-16T00:11:09.355Z,22.93
2019-04-16T00:13:53.648Z,22.77
2019-04-16T00:16:22.470Z,23.70
2019-04-16T00:18:58.148Z,23.40
2019-04-16T00:21:29.478Z,22.60
2019-04-16T00:24:18.589Z,22.37
2019-04-16T00:26:48.774Z,22.67
2019-04-16T00:29:17.638Z,23.00
2019-04-16T00:31:51.028Z,22.00
2019-04-16T00:34:19.648Z,21.27
2019-04-16T00:36:49.302Z,22.80
2019-04-16T00:39:18.037Z,22.10
2019-04-16T00:41:46.697Z,22.20
2019-04-16T00:44:15.313Z,22.27
2019-04-16T00:46:44.075Z,22.40
2019-04-16T00:49:12.690Z,21.27
2019-04-16T00:51:41.602Z,22.70
2019-04-16T00:54:11.333Z,22.50
2019-04-16T00:56:40.183Z,23.03
2019-04-16T00:59:08.771Z,21.60
2019-04-16T01:01:37.555Z,21.40
2019-04-16T01:04:06.302Z,21.87
2019-04-16T01:06:35.041Z,22.10
2019-04-16T01:09:04.818Z,22.47
2019-04-16T01:11:33.443Z,22.30
2019-04-16T01:14:02.160Z,21.47
2019-04-16T01:16:32.915Z,21.07
2019-04-16T01:19:01.138Z,21.83
2019-04-16T01:21:29.741Z,21.23
2019-04-16T01:23:58.460Z,21.53
2019-04-16T01:26:27.629Z,21.43
2019-04-16T01:29:04.347Z,21.50
2019-04-16T01:32:04.007Z,20.97
2019-04-16T01:34:50.015Z,21.53
2019-04-16T01:37:36.267Z,21.23
2019-04-16T01:40:05.649Z,20.87
2019-04-16T01:42:34.311Z,21.07
2019-04-16T01:45:02.884Z,22.00
2019-04-16T01:47:35.945Z,21.50
2019-04-16T01:50:01.951Z,21.90
2019-04-16T01:52:30.570Z,22.73
2019-04-16T01:54:59.453Z,22.90
2019-04-16T01:57:28.321Z,22.27
2019-04-16T01:59:58.734Z,22.10
2019-04-16T02:02:27.489Z,20.80
2019-04-16T02:04:56.289Z,21.83
2019-04-16T02:07:27.682Z,21.07
2019-04-16T02:09:55.201Z,22.77
2019-04-16T02:12:23.948Z,21.20
2019-04-16T02:14:52.560Z,21.37
2019-04-16T02:17:26.738Z,22.00
2019-04-16T02:19:52.007Z,21.07
2019-04-16T02:22:20.887Z,21.27
2019-04-16T02:24:49.496Z,21.07
2019-04-16T02:27:18.294Z,21.13
2019-04-16T02:29:46.904Z,21.73
2019-04-16T02:32:15.572Z,21.93
2019-04-16T02:34:44.284Z,22.07
2019-04-16T02:37:13.060Z,21.83
2019-04-16T02:39:49.594Z,21.30
2019-04-16T02:42:12.019Z,22.03
2019-04-16T02:44:40.611Z,21.33
2019-04-16T02:47:09.354Z,20.90
2019-04-16T02:49:38.061Z,20.00
2019-04-16T02:52:24.344Z,20.80
2019-04-16T02:55:13.266Z,20.13
2019-04-16T02:57:52.086Z,20.47
2019-04-16T03:00:39.761Z,21.23
2019-04-16T03:03:11.832Z,20.20
2019-04-16T03:05:46.288Z,19.83
2019-04-16T03:08:15.059Z,21.33
2019-04-16T03:10:44.634Z,20.93
2019-04-16T03:13:13.943Z,22.00
2019-04-16T03:16:02.884Z,20.83
2019-04-16T03:18:35.419Z,20.10
2019-04-16T03:21:04.038Z,19.17
2019-04-16T03:23:36.482Z,20.07
2019-04-16T03:26:03.112Z,21.27
2019-04-16T03:28:31.748Z,20.30
2019-04-16T03:31:00.493Z,19.93
2019-04-16T03:33:29.171Z,20.17
2019-04-16T03:35:58.634Z,20.20
2019-04-16T03:38:27.333Z,21.17
2019-04-16T03:40:56.688Z,20.17
2019-04-16T03:43:25.704Z,19.17
2019-04-16T03:45:54.312Z,19.70
2019-04-16T03:48:23.444Z,19.67
2019-04-16T03:50:53.275Z,19.07
2019-04-16T03:53:21.873Z,20.30
2019-04-16T03:55:50.455Z,18.67
2019-04-16T03:58:19.068Z,20.13
2019-04-16T04:00:47.687Z,20.50
2019-04-16T04:03:16.674Z,19.23
2019-04-16T04:05:54.946Z,19.63
2019-04-16T04:08:23.711Z,20.23
2019-04-16T04:10:52.318Z,19.23
2019-04-16T04:13:20.971Z,19.93
2019-04-16T04:15:49.556Z,19.30
2019-04-16T04:18:18.382Z,21.17
2019-04-16T04:20:49.673Z,20.77
2019-04-16T04:23:17.435Z,20.83
2019-04-16T04:25:46.270Z,21.37
2019-04-16T04:28:18.736Z,21.33
2019-04-16T04:30:48.504Z,22.87
2019-04-16T04:33:40.920Z,22.90
2019-04-16T04:36:09.470Z,21.57
2019-04-16T04:38:38.562Z,20.60
2019-04-16T04:41:07.832Z,20.07
2019-04-16T04:43:36.825Z,20.33
2019-04-16T04:46:05.531Z,21.13
2019-04-16T04:48:34.172Z,19.73
2019-04-16T04:51:06.966Z,19.27
2019-04-16T04:53:33.486Z,20.17
2019-04-16T04:56:02.326Z,20.23
2019-04-16T04:58:33.825Z,19.73
2019-04-16T05:01:01.330Z,19.47
2019-04-16T05:03:54.904Z,20.23
2019-04-16T05:06:27.963Z,20.53
2019-04-16T05:08:57.624Z,18.93
2019-04-16T05:11:27.444Z,19.53
2019-04-16T05:13:57.033Z,19.37
2019-04-16T05:16:25.937Z,18.50
2019-04-16T05:18:54.901Z,17.87
2019-04-16T05:21:24.362Z,18.17
2019-04-16T05:23:56.771Z,16.20
2019-04-16T05:26:23.397Z,17.73
2019-04-16T05:28:51.996Z,15.30
2019-04-16T05:31:24.391Z,15.87
2019-04-16T05:33:51.039Z,16.00
2019-04-16T05:36:21.299Z,17.00
2019-04-16T05:38:50.346Z,16.60
2019-04-16T05:41:21.968Z,16.53
2019-04-16T05:43:49.298Z,16.80
2019-04-16T05:46:17.927Z,16.30
2019-04-16T05:48:56.220Z,16.37
2019-04-16T05:51:20.341Z,15.73
2019-04-16T05:53:52.189Z,15.73
2019-04-16T05:56:30.990Z,16.73
2019-04-16T05:59:02.486Z,16.27
2019-04-16T06:01:34.930Z,15.60
2019-04-16T06:04:03.602Z,16.37
2019-04-16T06:06:32.507Z,16.47
2019-04-16T06:09:01.512Z,16.47
2019-04-16T06:11:35.776Z,16.00
2019-04-16T06:14:17.937Z,16.73
2019-04-16T06:16:57.607Z,17.20
2019-04-16T06:19:46.902Z,17.27
2019-04-16T06:22:30.175Z,16.43
2019-04-16T06:25:16.832Z,16.40
2019-04-16T06:28:03.163Z,17.40
2019-04-16T06:30:53.653Z,16.47
2019-04-16T06:33:30.722Z,15.43
2019-04-16T06:36:06.355Z,15.47
2019-04-16T06:38:43.136Z,15.77
2019-04-16T06:41:41.428Z,16.30
2019-04-16T06:44:04.172Z,15.73
2019-04-16T06:46:54.892Z,16.20
2019-04-16T06:49:41.865Z,15.90
2019-04-16T06:52:27.869Z,16.10
2019-04-16T06:55:11.561Z,16.10
2019-04-16T06:58:04.867Z,13.60
2019-04-16T07:00:46.891Z,14.97
2019-04-16T07:03:33.046Z,14.97
2019-04-16T07:06:20.788Z,16.03
2019-04-16T07:09:14.213Z,14.77
2019-04-16T07:11:53.657Z,14.37
2019-04-16T07:14:15.659Z,14.80
2019-04-16T07:16:44.651Z,14.03
2019-04-16T07:19:16.536Z,13.83
2019-04-16T07:21:48.716Z,15.23
2019-04-16T07:24:14.248Z,14.67
2019-04-16T07:26:46.410Z,14.53
2019-04-16T07:29:35.164Z,15.60
2019-04-16T07:32:34.947Z,14.13
2019-04-16T07:35:23.107Z,13.53
2019-04-16T07:38:05.009Z,14.77
2019-04-16T07:41:11.033Z,14.03
2019-04-16T07:43:55.876Z,13.17
2019-04-16T07:46:44.229Z,13.63
2019-04-16T07:49:37.514Z,14.07
2019-04-16T07:52:34.095Z,14.70
2019-04-16T07:55:23.641Z,13.83
2019-04-16T07:57:52.130Z,14.63
2019-04-16T08:00:20.731Z,13.80
2019-04-16T08:02:50.678Z,13.40
2019-04-16T08:05:19.824Z,14.10
2019-04-16T08:07:49.722Z,14.03
2019-04-16T08:10:18.829Z,15.77
2019-04-16T08:12:53.485Z,15.63
2019-04-16T08:15:22.234Z,16.53
2019-04-16T08:17:50.830Z,17.43
2019-04-16T08:20:21.000Z,17.53
2019-04-16T08:22:50.966Z,16.70
2019-04-16T08:25:26.213Z,16.97
2019-04-16T08:27:55.069Z,16.87
2019-04-16T08:30:23.710Z,17.57
2019-04-16T08:32:52.306Z,16.83
2019-04-16T08:35:21.028Z,16.60
2019-04-16T08:37:49.707Z,16.83
2019-04-16T08:40:18.632Z,17.77
2019-04-16T08:42:47.248Z,18.67
2019-04-16T08:45:15.947Z,16.67
2019-04-16T08:47:44.954Z,17.50
2019-04-16T08:50:14.756Z,18.77
2019-04-16T08:52:43.353Z,17.67
2019-04-16T08:55:11.934Z,15.50
2019-04-16T08:57:40.575Z,14.90
2019-04-16T09:00:14.353Z,16.03
2019-04-16T09:02:41.527Z,17.13
2019-04-16T09:05:11.747Z,14.63
2019-04-16T09:07:40.686Z,15.40
2019-04-16T09:10:18.912Z,15.83
2019-04-16T09:12:47.635Z,15.37
2019-04-16T09:15:27.513Z,15.20
2019-04-16T09:18:15.477Z,15.17
2019-04-16T09:20:44.591Z,14.50
2019-04-16T09:23:13.358Z,13.70
2019-04-16T09:26:12.163Z,14.63
2019-04-16T09:29:08.137Z,15.17
2019-04-16T09:31:54.993Z,14.50
2019-04-16T09:34:40.436Z,14.87
2019-04-16T09:37:35.737Z,14.93
2019-04-16T09:40:41.739Z,13.77
2019-04-16T09:43:17.187Z,15.67
2019-04-16T09:45:42.843Z,14.43
2019-04-16T09:48:11.636Z,13.43
2019-04-16T09:50:46.529Z,13.30
2019-04-16T09:53:10.868Z,12.60
2019-04-16T09:55:39.507Z,11.90
2019-04-16T09:58:21.265Z,11.53
2019-04-16T10:00:55.689Z,11.40
2019-04-16T10:03:31.174Z,11.20
2019-04-16T10:05:59.784Z,11.77
2019-04-16T10:08:29.415Z,11.13
2019-04-16T10:11:02.724Z,12.53
2019-04-16T10:13:32.871Z,12.13
2019-04-16T10:15:59.465Z,11.77
2019-04-16T10:18:28.188Z,9.57
2019-04-16T10:20:57.055Z,11.30
2019-04-16T10:23:40.420Z,11.00
2019-04-16T10:26:09.151Z,9.63
2019-04-16T10:28:39.191Z,9.63
2019-04-16T10:31:08.281Z,10.23
2019-04-16T10:33:36.938Z,9.80
2019-04-16T10:36:06.169Z,9.80
2019-04-16T10:38:57.346Z,9.37
2019-04-16T10:41:38.593Z,9.20
2019-04-16T10:44:17.376Z,10.07
2019-04-16T10:47:20.625Z,9.20
2019-04-16T10:49:58.815Z,9.70
2019-04-16T10:52:45.181Z,9.97
2019-04-16T10:55:45.078Z,9.00
2019-04-16T10:58:29.385Z,9.70
2019-04-16T11:01:05.946Z,8.63
2019-04-16T11:03:44.567Z,8.93
2019-04-16T11:06:35.193Z,9.33
2019-04-16T11:09:05.894Z,9.03
2019-04-16T11:11:34.584Z,9.27
2019-04-16T11:14:03.343Z,10.03
2019-04-16T11:16:32.323Z,9.23
2019-04-16T11:19:00.951Z,9.40
2019-04-16T11:21:29.636Z,9.03
2019-04-16T11:23:58.282Z,9.43
2019-04-16T11:26:27.112Z,8.83
2019-04-16T11:28:55.735Z,9.07
2019-04-16T11:31:25.034Z,7.93
2019-04-16T11:33:53.668Z,8.60
2019-04-16T11:36:22.333Z,8.83
2019-04-16T11:38:51.271Z,7.93
2019-04-16T11:41:20.038Z,7.77
2019-04-16T11:43:48.761Z,7.67
2019-04-16T11:46:17.445Z,7.63
2019-04-16T11:48:46.183Z,7.17
2019-04-16T11:51:14.822Z,7.70
2019-04-16T11:53:43.551Z,6.67
2019-04-16T11:56:12.164Z,7.00
2019-04-16T11:58:45.249Z,7.83
2019-04-16T12:01:39.563Z,6.30
2019-04-16T12:04:17.011Z,6.77
2019-04-16T12:06:58.730Z,7.10
2019-04-16T12:09:42.910Z,6.33
2019-04-16T12:12:21.611Z,7.70
2019-04-16T12:15:07.586Z,6.33
2019-04-16T12:17:58.701Z,6.67
2019-04-16T12:20:52.231Z,5.20
2019-04-16T12:23:55.230Z,5.50
2019-04-16T12:26:46.558Z,5.37
2019-04-16T12:29:33.798Z,4.67
2019-04-16T12:32:27.456Z,7.10
2019-04-16T12:35:04.073Z,5.37
2019-04-16T12:37:49.961Z,5.23
2019-04-16T12:40:43.510Z,4.97
2019-04-16T12:43:16.722Z,5.23
2019-04-16T12:45:53.564Z,5.80
2019-04-16T12:48:30.107Z,4.80
2019-04-16T12:51:06.632Z,4.60
2019-04-16T12:53:43.176Z,4.37
2019-04-16T12:56:32.648Z,4.50
2019-04-16T12:59:09.162Z,4.63
2019-04-16T13:01:56.756Z,3.87
2019-04-16T13:04:36.199Z,4.23
2019-04-16T13:07:27.207Z,3.97
2019-04-16T13:10:23.741Z,4.40
2019-04-16T13:13:02.812Z,4.13
2019-04-16T13:15:45.139Z,4.40
2019-04-16T13:18:19.705Z,5.20
2019-04-16T13:21:10.874Z,4.80
2019-04-16T13:23:51.794Z,4.33
2019-04-16T13:26:45.790Z,3.90
2019-04-16T13:29:20.376Z,4.93
2019-04-16T13:31:49.936Z,4.33
2019-04-16T13:34:19.429Z,4.80
2019-04-16T13:36:51.408Z,4.50
2019-04-16T13:39:40.727Z,5.13
2019-04-16T13:42:09.574Z,4.50
2019-04-16T13:44:42.358Z,5.07
2019-04-16T13:47:12.032Z,5.07
2019-04-16T13:50:03.519Z,5.20
2019-04-16T13:52:31.933Z,4.63
2019-04-16T13:55:18.606Z,4.77
2019-04-16T13:57:54.940Z,5.50
2019-04-16T14:00:33.565Z,5.57
2019-04-16T14:03:07.518Z,5.00
2019-04-16T14:05:38.403Z,5.03
2019-04-16T14:08:06.604Z,5.00
2019-04-16T14:10:35.236Z,6.03
2019-04-16T14:13:03.896Z,5.33
2019-04-16T14:15:38.992Z,5.50
2019-04-16T14:18:04.506Z,5.50
2019-04-16T14:20:33.246Z,6.13
2019-04-16T14:23:05.099Z,5.60
2019-04-16T14:25:33.942Z,5.97
2019-04-16T14:28:03.688Z,5.17
2019-04-16T14:30:35.700Z,5.13
2019-04-16T14:33:07.127Z,5.40
2019-04-16T14:35:40.076Z,5.50
2019-04-16T14:38:07.504Z,5.20
2019-04-16T14:40:36.340Z,4.80
2019-04-16T14:43:04.966Z,4.73
2019-04-16T14:45:58.378Z,5.20
2019-04-16T14:48:21.445Z,5.43
2019-04-16T14:50:50.026Z,4.57
2019-04-16T14:53:30.956Z,4.40
2019-04-16T14:56:13.768Z,4.87
2019-04-16T14:58:58.746Z,5.00
2019-04-16T15:01:47.216Z,4.33
2019-04-16T15:04:33.312Z,4.23
2019-04-16T15:07:20.954Z,4.50
2019-04-16T15:10:01.355Z,4.23
2019-04-16T15:12:53.914Z,3.77
2019-04-16T15:15:30.332Z,3.23
2019-04-16T15:18:27.199Z,3.90
2019-04-16T15:21:13.421Z,3.60
2019-04-16T15:24:07.049Z,3.90
2019-04-16T15:26:53.638Z,4.00
2019-04-16T15:29:44.281Z,4.20
2019-04-16T15:32:29.522Z,4.13
2019-04-16T15:34:58.556Z,4.40
2019-04-16T15:37:45.022Z,4.57
2019-04-16T15:40:22.290Z,4.17
2019-04-16T15:43:10.005Z,4.37
2019-04-16T15:46:06.719Z,4.20
2019-04-16T15:48:50.590Z,3.93
2019-04-16T15:51:29.419Z,4.20
2019-04-16T15:54:16.004Z,4.43
2019-04-16T15:57:03.564Z,4.47
2019-04-16T15:59:55.458Z,3.97
2019-04-16T16:03:02.064Z,4.17
2019-04-16T16:05:44.017Z,3.63
2019-04-16T16:08:33.379Z,4.20
2019-04-16T16:11:01.917Z,4.00
2019-04-16T16:13:30.499Z,3.93
2019-04-16T16:15:59.084Z,4.10
2019-04-16T16:18:27.703Z,4.20
2019-04-16T16:20:56.298Z,3.67
2019-04-16T16:23:25.041Z,3.50
2019-04-16T16:25:54.301Z,3.80
2019-04-16T16:28:23.041Z,3.70
2019-04-16T16:30:51.733Z,3.60
2019-04-16T16:33:20.357Z,3.37
2019-04-16T16:35:57.450Z,3.80
2019-04-16T16:38:21.028Z,3.50
2019-04-16T16:40:50.572Z,3.87
2019-04-16T16:43:19.528Z,3.90
2019-04-16T16:46:25.446Z,3.73
2019-04-16T16:48:54.896Z,4.43
2019-04-16T16:51:24.150Z,4.17
2019-04-16T16:54:11.969Z,4.03
2019-04-16T16:57:08.655Z,4.23
2019-04-16T16:59:47.216Z,4.07
2019-04-16T17:02:30.476Z,4.07
2019-04-16T17:04:59.681Z,4.03
2019-04-16T17:07:28.298Z,4.53
2019-04-16T17:09:57.090Z,4.33
2019-04-16T17:12:25.980Z,4.87
2019-04-16T17:14:54.868Z,4.40
2019-04-16T17:17:23.545Z,4.70
2019-04-16T17:19:52.386Z,4.50
2019-04-16T17:22:21.349Z,5.30
2019-04-16T17:24:50.060Z,5.37
2019-04-16T17:27:18.844Z,4.60
2019-04-16T17:29:49.857Z,5.43
2019-04-16T17:32:17.907Z,4.77
2019-04-16T17:34:46.584Z,5.53
2019-04-16T17:37:15.602Z,5.13
2019-04-16T17:39:52.022Z,5.30
2019-04-16T17:42:23.389Z,6.50
2019-04-16T17:45:09.799Z,5.17
2019-04-16T17:48:09.582Z,5.90
2019-04-16T17:50:55.914Z,5.40
2019-04-16T17:53:35.438Z,5.70
2019-04-16T17:56:34.953Z,5.83
2019-04-16T17:59:07.008Z,4.93
2019-04-16T18:01:55.242Z,5.20
2019-04-16T18:04:33.189Z,5.57
2019-04-16T18:07:19.539Z,5.60
2019-04-16T18:10:00.081Z,6.07
2019-04-16T18:12:44.750Z,5.87
2019-04-16T18:15:23.878Z,6.50
2019-04-16T18:18:15.758Z,5.67
2019-04-16T18:20:57.409Z,6.27
2019-04-16T18:23:37.129Z,6.30
2019-04-16T18:26:24.715Z,5.70
2019-04-16T18:29:02.760Z,6.10
2019-04-16T18:31:56.003Z,6.37
2019-04-16T18:34:47.183Z,7.40
2019-04-16T18:37:28.406Z,7.50
2019-04-16T18:40:16.399Z,6.70
2019-04-16T18:43:19.143Z,7.13
2019-04-16T18:46:05.222Z,6.20
2019-04-16T18:48:35.553Z,7.07
2019-04-16T18:51:04.251Z,7.37
2019-04-16T18:53:32.864Z,7.43
2019-04-16T18:56:01.477Z,6.87
2019-04-16T18:58:30.208Z,6.70
2019-04-16T19:01:01.710Z,6.60
2019-04-16T19:03:30.503Z,7.50
2019-04-16T19:05:59.072Z,7.03
2019-04-16T19:08:40.837Z,6.90
2019-04-16T19:10:57.935Z,6.90
2019-04-16T19:13:26.567Z,6.70
2019-04-16T19:15:55.163Z,7.17
2019-04-16T19:18:24.028Z,8.03
2019-04-16T19:20:52.734Z,7.17
2019-04-16T19:23:22.240Z,7.57
2019-04-16T19:25:51.741Z,8.47
2019-04-16T19:28:22.798Z,7.63
2019-04-16T19:30:51.414Z,8.30
2019-04-16T19:33:20.296Z,7.60
2019-04-16T19:35:51.871Z,7.90
2019-04-16T19:38:19.220Z,7.77
2019-04-16T19:40:50.843Z,8.30
2019-04-16T19:43:18.210Z,8.37
2019-04-16T19:45:47.135Z,8.37
2019-04-16T19:48:17.867Z,8.47
2019-04-16T19:50:46.254Z,10.20
2019-04-16T19:53:15.179Z,9.07
2019-04-16T19:55:45.888Z,9.43
2019-04-16T19:58:14.336Z,8.60
2019-04-16T20:00:42.988Z,9.33
2019-04-16T20:03:11.578Z,9.47
2019-04-16T20:05:40.439Z,8.97
2019-04-16T20:08:09.380Z,10.97
2019-04-16T20:10:38.007Z,10.07
2019-04-16T20:13:06.876Z,10.50
2019-04-16T20:15:35.514Z,10.70
2019-04-16T20:18:06.575Z,10.50
2019-04-16T20:20:34.563Z,10.43
2019-04-16T20:23:03.186Z,9.97
2019-04-16T20:25:31.908Z,10.00
2019-04-16T20:28:00.513Z,9.97
2019-04-16T20:30:29.111Z,9.50
2019-04-16T20:32:57.754Z,10.17
2019-04-16T20:35:26.380Z,10.47
2019-04-16T20:37:55.289Z,10.50
2019-04-16T20:40:24.297Z,10.40
2019-04-16T20:42:52.893Z,9.70
2019-04-16T20:45:21.482Z,11.63
2019-04-16T20:47:50.089Z,12.47
2019-04-16T20:50:20.877Z,11.57
2019-04-16T20:52:48.980Z,11.17
2019-04-16T20:55:17.680Z,10.13
2019-04-16T20:57:46.389Z,12.70
2019-04-16T21:00:19.098Z,12.03
2019-04-16T21:02:48.128Z,10.57
2019-04-16T21:05:22.298Z,11.37
2019-04-16T21:07:48.533Z,11.90
2019-04-16T21:10:17.122Z,11.50
2019-04-16T21:12:46.159Z,12.37
2019-04-16T21:15:14.837Z,11.47
2019-04-16T21:17:43.743Z,13.70
2019-04-16T21:20:12.351Z,14.13
2019-04-16T21:22:41.187Z,15.83
2019-04-16T21:25:13.035Z,15.17
2019-04-16T21:28:07.038Z,16.50
2019-04-16T21:30:35.674Z,17.97
2019-04-16T21:33:09.467Z,17.00
2019-04-16T21:35:40.019Z,17.37
2019-04-16T21:38:21.684Z,17.17
2019-04-16T21:40:52.790Z,17.87
2019-04-16T21:43:20.727Z,18.23
2019-04-16T21:45:49.333Z,18.07
2019-04-16T21:48:18.110Z,17.33
2019-04-16T21:50:47.582Z,17.27
2019-04-16T21:53:16.852Z,17.47
2019-04-16T21:55:45.510Z,17.30
2019-04-16T21:58:14.574Z,16.57
2019-04-16T22:01:04.062Z,16.53
2019-04-16T22:03:31.534Z,17.43
2019-04-16T22:06:00.252Z,18.13
2019-04-16T22:08:29.708Z,16.60
2019-04-16T22:10:58.952Z,17.37
2019-04-16T22:13:27.549Z,16.90
2019-04-16T22:15:57.312Z,15.70
2019-04-16T22:18:26.432Z,17.73
2019-04-16T22:20:55.042Z,15.53
2019-04-16T22:23:23.957Z,16.47
2019-04-16T22:25:52.559Z,15.47
2019-04-16T22:28:21.337Z,14.87
2019-04-16T22:30:51.541Z,15.80
2019-04-16T22:33:20.226Z,15.13
2019-04-16T22:35:48.984Z,14.70
2019-04-16T22:38:17.620Z,14.63
2019-04-16T22:40:59.650Z,15.30
2019-04-16T22:43:45.603Z,15.57
2019-04-16T22:46:20.965Z,15.63
2019-04-16T22:48:56.647Z,16.00
2019-04-16T22:51:25.574Z,16.53
2019-04-16T22:53:54.390Z,16.87
2019-04-16T22:56:29.056Z,17.07
2019-04-16T22:58:57.796Z,15.97
2019-04-16T23:01:27.396Z,16.57
2019-04-16T23:03:56.017Z,15.20
2019-04-16T23:06:24.627Z,15.93
2019-04-16T23:08:53.231Z,15.77
2019-04-16T23:11:23.686Z,15.07
2019-04-16T23:13:52.340Z,16.10
2019-04-16T23:16:20.943Z,15.87
2019-04-16T23:18:50.123Z,15.60
2019-04-16T23:21:18.903Z,15.87
2019-04-16T23:23:47.727Z,16.10
2019-04-16T23:26:17.793Z,15.83
2019-04-16T23:28:46.488Z,16.53
2019-04-16T23:31:15.139Z,17.30
2019-04-16T23:33:44.000Z,17.43
2019-04-16T23:36:15.893Z,16.40
2019-04-16T23:38:42.982Z,16.97
2019-04-16T23:41:15.477Z,17.43
2019-04-16T23:44:03.795Z,17.90
2019-04-16T23:46:54.657Z,17.73
2019-04-16T23:49:45.162Z,17.47
2019-04-16T23:52:19.418Z,17.23
2019-04-16T23:54:54.494Z,17.17
2019-04-16T23:57:42.177Z,18.40
